createdAt,value
2023-04-02T00:02:21.326Z,6.99
2023-04-02T00:07:31.238Z,7.07
2023-04-02T00:12:33.055Z,7.07
2023-04-02T00:17:34.806Z,7.02
2023-04-02T00:22:44.690Z,7.14
2023-04-02T00:27:46.634Z,7.10
2023-04-02T00:32:48.995Z,6.93
2023-04-02T00:37:51.220Z,7.12
2023-04-02T00:42:58.582Z,6.89
2023-04-02T00:48:23.651Z,7.24
2023-04-02T00:53:28.919Z,7.02
2023-04-02T00:58:34.777Z,6.81
2023-04-02T01:03:38.014Z,6.85
2023-04-02T01:08:56.316Z,6.76
2023-04-02T01:14:09.928Z,6.62
2023-04-02T01:19:36.213Z,6.77
2023-04-02T01:24:38.465Z,6.66
2023-04-02T01:29:45.522Z,6.82
2023-04-02T01:34:49.608Z,6.62
2023-04-02T01:40:09.964Z,6.53
2023-04-02T01:45:14.074Z,6.84
2023-04-02T01:50:41.743Z,6.66
2023-04-02T01:55:59.530Z,6.73
2023-04-02T02:01:08.515Z,6.32
2023-04-02T02:06:17.575Z,6.11
2023-04-02T02:11:22.384Z,6.18
2023-04-02T02:16:27.495Z,6.15
2023-04-02T02:21:44.118Z,6.10
2023-04-02T02:26:48.475Z,5.82
2023-04-02T02:31:54.914Z,6.08
2023-04-02T02:37:04.568Z,5.78
2023-04-02T02:42:30.310Z,5.97
2023-04-02T02:47:36.925Z,5.75
2023-04-02T02:52:46.787Z,5.71
2023-04-02T02:58:04.584Z,5.46
2023-04-02T03:03:18.093Z,5.55
2023-04-02T03:08:31.087Z,5.70
2023-04-02T03:13:39.722Z,5.58
2023-04-02T03:18:59.241Z,5.64
2023-04-02T03:24:18.530Z,5.69
2023-04-02T03:29:31.446Z,5.57
2023-04-02T03:34:41.326Z,5.40
2023-04-02T03:39:47.529Z,5.43
2023-04-02T03:44:56.634Z,5.45
2023-04-02T03:50:07.602Z,5.40
2023-04-02T03:55:20.348Z,5.39
2023-04-02T04:00:51.854Z,5.17
2023-04-02T04:05:59.879Z,5.43
2023-04-02T04:11:07.603Z,5.48
2023-04-02T04:16:19.458Z,5.30
2023-04-02T04:27:33.568Z,5.14
2023-04-02T04:32:43.009Z,5.02
2023-04-02T04:38:00.707Z,4.71
2023-04-02T04:43:07.791Z,4.92
2023-04-02T04:48:20.888Z,4.79
2023-04-02T04:53:25.963Z,4.74
2023-04-02T04:58:40.977Z,4.61
2023-04-02T05:03:48.905Z,4.63
2023-04-02T05:08:55.834Z,4.48
2023-04-02T05:14:03.689Z,4.17
2023-04-02T05:19:17.130Z,4.49
2023-04-02T05:24:44.382Z,4.49
2023-04-02T05:29:53.494Z,4.22
2023-04-02T05:34:57.368Z,4.50
2023-04-02T05:40:13.651Z,4.25
2023-04-02T05:45:20.340Z,4.32
2023-04-02T05:50:37.199Z,4.49
2023-04-02T05:55:51.768Z,4.61
2023-04-02T06:01:17.591Z,4.62
2023-04-02T06:06:48.861Z,4.34
2023-04-02T06:12:15.375Z,4.25
2023-04-02T06:17:20.345Z,4.01
2023-04-02T06:22:35.007Z,4.03
2023-04-02T06:27:40.107Z,4.27
2023-04-02T06:32:43.994Z,3.93
2023-04-02T06:37:51.902Z,3.74
2023-04-02T06:43:02.829Z,3.92
2023-04-02T06:48:29.434Z,3.83
2023-04-02T06:53:47.270Z,3.94
2023-04-02T06:58:51.367Z,3.91
2023-04-02T07:03:55.117Z,4.39
2023-04-02T07:09:06.839Z,4.12
2023-04-02T07:14:19.549Z,3.87
2023-04-02T07:19:23.064Z,4.05
2023-04-02T07:24:31.854Z,4.34
2023-04-02T07:29:33.746Z,4.25
2023-04-02T07:34:35.492Z,4.31
2023-04-02T07:39:39.478Z,4.45
2023-04-02T07:44:42.365Z,4.81
2023-04-02T07:49:44.038Z,4.87
2023-04-02T07:54:45.706Z,4.68
2023-04-02T07:59:47.497Z,4.79
2023-04-02T08:04:51.274Z,5.13
2023-04-02T08:09:52.967Z,4.60
2023-04-02T08:14:54.775Z,4.90
2023-04-02T08:20:00.955Z,4.86
2023-04-02T08:25:02.680Z,5.37
2023-04-02T08:30:06.551Z,5.08
2023-04-02T08:35:11.299Z,5.56
2023-04-02T08:40:26.700Z,5.38
2023-04-02T08:45:53.966Z,5.27
2023-04-02T08:50:57.199Z,5.68
2023-04-02T08:56:17.699Z,5.38
2023-04-02T09:01:39.657Z,5.87
2023-04-02T09:06:44.261Z,5.58
2023-04-02T09:12:00.646Z,5.01
2023-04-02T09:17:04.587Z,5.62
2023-04-02T09:22:14.021Z,4.99
2023-04-02T09:27:19.750Z,5.59
2023-04-02T09:32:40.555Z,5.31
2023-04-02T09:37:44.554Z,5.32
2023-04-02T09:42:46.386Z,5.18
2023-04-02T09:47:49.300Z,4.87
2023-04-02T09:52:51.523Z,5.14
2023-04-02T09:58:08.798Z,5.46
2023-04-02T10:03:33.077Z,4.66
2023-04-02T10:08:36.183Z,5.30
2023-04-02T10:13:57.640Z,5.21
2023-04-02T10:19:06.519Z,6.78
2023-04-02T10:24:14.549Z,8.70
2023-04-02T10:29:26.558Z,8.33
2023-04-02T10:34:52.906Z,9.76
2023-04-02T10:40:00.642Z,8.20
2023-04-02T10:45:19.863Z,6.84
2023-04-02T10:50:44.942Z,7.53
2023-04-02T10:55:56.455Z,7.01
2023-04-02T11:01:08.129Z,8.51
2023-04-02T11:06:41.934Z,7.78
2023-04-02T11:11:46.835Z,9.00
2023-04-02T11:16:50.240Z,9.00
2023-04-02T11:22:02.012Z,9.23
2023-04-02T11:27:06.649Z,10.08
2023-04-02T11:32:37.261Z,10.81
2023-04-02T11:37:45.517Z,11.10
2023-04-02T11:42:48.763Z,9.03
2023-04-02T11:47:59.602Z,11.28
2023-04-02T11:53:10.426Z,10.21
2023-04-02T11:58:43.100Z,10.57
2023-04-02T12:04:23.385Z,11.21
2023-04-02T12:09:27.926Z,10.41
2023-04-02T12:14:47.819Z,11.79
2023-04-02T12:19:53.096Z,11.25
2023-04-02T12:24:59.660Z,11.15
2023-04-02T12:30:14.646Z,12.01
2023-04-02T12:35:33.943Z,10.67
2023-04-02T12:40:35.901Z,11.14
2023-04-02T12:45:38.824Z,9.90
2023-04-02T12:50:41.875Z,11.02
2023-04-02T12:55:48.931Z,11.83
2023-04-02T13:00:53.932Z,11.78
2023-04-02T13:05:57.321Z,9.85
2023-04-02T13:11:01.523Z,10.78
2023-04-02T13:16:28.087Z,11.77
2023-04-02T13:21:30.881Z,10.82
2023-04-02T13:26:32.772Z,11.37
2023-04-02T13:31:34.671Z,10.01
2023-04-02T13:36:37.495Z,9.95
2023-04-02T13:41:44.872Z,10.84
2023-04-02T13:46:50.065Z,10.96
2023-04-02T13:51:54.622Z,10.74
2023-04-02T13:56:57.085Z,11.02
2023-04-02T14:02:06.519Z,11.72
2023-04-02T14:07:08.309Z,11.62
2023-04-02T14:12:35.606Z,11.17
2023-04-02T14:17:58.781Z,10.98
2023-04-02T14:23:19.258Z,10.93
2023-04-02T14:28:37.505Z,10.54
2023-04-02T14:33:44.628Z,10.50
2023-04-02T14:39:43.762Z,11.13
2023-04-02T14:44:53.292Z,10.62
2023-04-02T14:50:02.981Z,10.66
2023-04-02T14:55:15.407Z,11.04
2023-04-02T15:00:20.979Z,11.53
2023-04-02T15:05:46.119Z,10.30
2023-04-02T15:11:19.978Z,10.47
2023-04-02T15:16:23.682Z,10.34
2023-04-02T15:21:55.606Z,10.86
2023-04-02T15:27:37.894Z,10.83
2023-04-02T15:32:41.794Z,10.51
2023-04-02T15:37:55.301Z,10.74
2023-04-02T15:43:51.368Z,10.68
2023-04-02T15:49:20.076Z,10.63
2023-04-02T15:54:37.014Z,10.59
2023-04-02T15:59:53.754Z,10.60
2023-04-02T16:05:07.090Z,10.87
2023-04-02T16:10:42.006Z,10.65
2023-04-02T16:16:22.466Z,10.60
2023-04-02T16:21:29.601Z,10.93
2023-04-02T16:26:43.914Z,10.67
2023-04-02T16:32:02.809Z,10.51
2023-04-02T16:37:22.629Z,10.76
2023-04-02T16:42:52.764Z,10.12
2023-04-02T16:48:09.248Z,10.32
2023-04-02T16:53:36.068Z,10.12
2023-04-02T16:58:56.449Z,10.21
2023-04-02T17:04:01.335Z,10.38
2023-04-02T17:09:42.891Z,10.05
2023-04-02T17:14:47.752Z,9.84
2023-04-02T17:19:55.112Z,10.10
2023-04-02T17:25:04.704Z,10.50
2023-04-02T17:30:42.026Z,10.34
2023-04-02T17:36:02.658Z,9.73
2023-04-02T17:41:23.884Z,9.56
2023-04-02T17:46:31.571Z,9.55
2023-04-02T17:51:55.347Z,9.33
2023-04-02T17:57:17.185Z,8.96
2023-04-02T18:02:21.827Z,8.46
2023-04-02T18:07:54.541Z,8.23
2023-04-02T18:13:16.045Z,8.35
2023-04-02T18:18:54.872Z,7.82
2023-04-02T18:24:23.270Z,7.94
2023-04-02T18:29:46.657Z,7.57
2023-04-02T18:35:22.462Z,7.75
2023-04-02T18:40:43.400Z,7.60
2023-04-02T18:45:56.285Z,7.62
2023-04-02T18:51:00.415Z,7.47
2023-04-02T18:56:12.042Z,7.47
2023-04-02T19:01:18.529Z,7.48
2023-04-02T19:06:25.673Z,7.30
2023-04-02T19:11:31.437Z,6.91
2023-04-02T19:16:57.399Z,6.94
2023-04-02T19:22:33.778Z,6.60
2023-04-02T19:27:58.173Z,6.50
2023-04-02T19:33:23.524Z,6.31
2023-04-02T19:38:52.363Z,6.07
2023-04-02T19:43:55.374Z,5.89
2023-04-02T19:49:06.315Z,6.17
2023-04-02T19:54:11.305Z,6.21
2023-04-02T20:04:17.604Z,5.46
2023-04-02T20:09:21.133Z,5.38
2023-04-02T20:14:22.955Z,5.07
2023-04-02T20:19:24.918Z,5.12
2023-04-02T20:24:26.475Z,5.16
2023-04-02T20:29:30.450Z,5.15
2023-04-02T20:34:32.647Z,4.96
2023-04-02T20:39:34.489Z,4.74
2023-04-02T20:44:36.131Z,4.65
2023-04-02T20:49:37.972Z,4.90
2023-04-02T20:54:39.732Z,4.84
2023-04-02T20:59:41.352Z,5.34
2023-04-02T21:04:43.029Z,5.39
2023-04-02T21:09:44.598Z,4.36
2023-04-02T21:14:46.632Z,4.27
2023-04-02T21:19:48.324Z,4.75
2023-04-02T21:24:51.380Z,5.27
2023-04-02T21:29:53.183Z,5.48
2023-04-02T21:34:55.308Z,5.43
2023-04-02T21:39:57.105Z,5.60
2023-04-02T21:44:58.899Z,5.43
2023-04-02T21:50:00.532Z,5.62
2023-04-02T21:55:02.148Z,5.56
2023-04-02T22:00:10.651Z,5.72
2023-04-02T22:05:12.543Z,5.55
2023-04-02T22:10:14.386Z,5.57
2023-04-02T22:15:16.204Z,5.51
2023-04-02T22:20:17.785Z,5.47
2023-04-02T22:25:19.476Z,5.40
2023-04-02T22:30:21.242Z,5.47
2023-04-02T22:35:22.835Z,5.48
2023-04-02T22:40:24.551Z,5.48
2023-04-02T22:45:26.401Z,5.34
2023-04-02T22:50:28.186Z,5.23
2023-04-02T22:55:29.884Z,5.21
2023-04-02T23:00:31.540Z,5.07
2023-04-02T23:05:33.472Z,5.11
2023-04-02T23:10:35.588Z,5.07
2023-04-02T23:15:37.414Z,4.93
2023-04-02T23:20:40.702Z,5.02
2023-04-02T23:25:43.114Z,4.81
2023-04-02T23:30:44.796Z,4.67
2023-04-02T23:35:46.518Z,4.55
2023-04-02T23:40:48.517Z,4.48
2023-04-02T23:45:58.239Z,4.50
2023-04-02T23:51:00.055Z,4.49
2023-04-02T23:56:02.122Z,4.50
